createdAt,value
2017-12-05T00:00:40.323Z,92.72
2017-12-05T00:03:06.075Z,92.56
2017-12-05T00:05:31.877Z,92.42
2017-12-05T00:07:57.637Z,92.45
2017-12-05T00:10:23.399Z,92.71
2017-12-05T00:12:49.170Z,93.07
2017-12-05T00:15:14.919Z,93.54
2017-12-05T00:17:40.697Z,93.67
2017-12-05T00:20:06.451Z,93.86
2017-12-05T00:22:32.216Z,93.71
2017-12-05T00:24:57.972Z,93.41
2017-12-05T00:27:23.744Z,93.35
2017-12-05T00:29:49.511Z,93.19
2017-12-05T00:32:15.284Z,92.93
2017-12-05T00:34:41.049Z,93.25
2017-12-05T00:37:06.804Z,93.84
2017-12-05T00:39:32.580Z,93.46
2017-12-05T00:41:58.336Z,93.29
2017-12-05T00:44:24.103Z,92.91
2017-12-05T00:46:49.862Z,93.12
2017-12-05T00:49:15.635Z,93.25
2017-12-05T00:51:41.391Z,93.29
2017-12-05T00:54:07.155Z,93.57
2017-12-05T00:56:32.908Z,93.24
2017-12-05T00:58:58.671Z,93.36
2017-12-05T01:01:24.431Z,93.06
2017-12-05T01:03:50.212Z,92.67
2017-12-05T01:06:15.976Z,92.93
2017-12-05T01:08:41.744Z,93.11
2017-12-05T01:11:07.525Z,93.39
2017-12-05T01:13:33.275Z,93.35
2017-12-05T01:15:59.043Z,93.19
2017-12-05T01:18:24.795Z,93.29
2017-12-05T01:20:50.555Z,93.21
2017-12-05T01:23:16.319Z,92.83
2017-12-05T01:25:42.090Z,92.78
2017-12-05T01:28:07.844Z,92.72
2017-12-05T01:30:33.604Z,92.74
2017-12-05T01:32:59.372Z,92.91
2017-12-05T01:35:25.139Z,92.74
2017-12-05T01:37:50.903Z,92.73
2017-12-05T01:40:16.676Z,92.67
2017-12-05T01:42:42.431Z,92.74
2017-12-05T01:45:08.194Z,92.71
2017-12-05T01:47:33.964Z,92.79
2017-12-05T01:49:59.725Z,92.75
2017-12-05T01:52:25.475Z,92.53
2017-12-05T01:54:51.263Z,92.39
2017-12-05T01:57:17.019Z,92.40
2017-12-05T01:59:42.794Z,92.37
2017-12-05T02:02:08.551Z,92.30
2017-12-05T02:04:34.314Z,92.15
2017-12-05T02:07:00.076Z,92.10
2017-12-05T02:09:25.846Z,92.00
2017-12-05T02:11:51.616Z,91.91
2017-12-05T02:14:17.380Z,91.76
2017-12-05T02:16:43.153Z,91.69
2017-12-05T02:19:08.924Z,92.08
2017-12-05T02:21:34.697Z,91.88
2017-12-05T02:24:00.446Z,91.93
2017-12-05T02:26:26.196Z,92.05
2017-12-05T02:28:51.967Z,91.98
2017-12-05T02:31:17.714Z,92.05
2017-12-05T02:33:43.474Z,92.17
2017-12-05T02:36:09.273Z,91.92
2017-12-05T02:38:35.026Z,91.79
2017-12-05T02:41:09.009Z,91.90
2017-12-05T02:43:34.773Z,91.59
2017-12-05T02:46:00.544Z,91.82
2017-12-05T02:48:26.311Z,92.00
2017-12-05T02:50:52.065Z,91.71
2017-12-05T02:53:17.829Z,91.74
2017-12-05T02:55:43.599Z,91.61
2017-12-05T02:58:09.356Z,91.48
2017-12-05T03:00:35.113Z,91.39
2017-12-05T03:03:00.852Z,91.37
2017-12-05T03:05:26.622Z,91.23
2017-12-05T03:07:52.376Z,91.49
2017-12-05T03:10:18.139Z,91.75
2017-12-05T03:12:43.895Z,92.47
2017-12-05T03:15:09.664Z,92.48
2017-12-05T03:17:35.431Z,92.31
2017-12-05T03:20:01.201Z,92.48
2017-12-05T03:22:26.962Z,92.54
2017-12-05T03:24:52.723Z,92.73
2017-12-05T03:27:18.476Z,92.87
2017-12-05T03:29:44.253Z,92.86
2017-12-05T03:32:10.000Z,92.95
2017-12-05T03:34:35.764Z,93.11
2017-12-05T03:37:01.517Z,92.89
2017-12-05T03:39:27.282Z,92.78
2017-12-05T03:41:53.039Z,92.58
2017-12-05T03:44:18.797Z,92.52
2017-12-05T03:46:44.583Z,92.21
2017-12-05T03:49:10.346Z,92.17
2017-12-05T03:51:36.116Z,91.65
2017-12-05T03:54:01.885Z,91.48
2017-12-05T03:56:27.647Z,91.27
2017-12-05T03:58:53.402Z,91.27
2017-12-05T04:01:19.177Z,91.28
2017-12-05T04:03:44.930Z,91.14
2017-12-05T04:06:10.704Z,91.17
2017-12-05T04:08:36.455Z,91.12
2017-12-05T04:11:02.232Z,91.26
2017-12-05T04:13:27.984Z,91.17
2017-12-05T04:15:53.752Z,91.04
2017-12-05T04:18:19.505Z,91.31
2017-12-05T04:20:45.264Z,91.27
2017-12-05T04:23:11.032Z,91.11
2017-12-05T04:25:36.783Z,91.20
2017-12-05T04:28:02.565Z,91.16
2017-12-05T04:30:28.324Z,91.41
2017-12-05T04:32:54.103Z,91.40
2017-12-05T04:35:19.876Z,91.22
2017-12-05T04:37:45.669Z,91.11
2017-12-05T04:40:11.442Z,91.02
2017-12-05T04:42:37.219Z,90.95
2017-12-05T04:45:02.977Z,90.90
2017-12-05T04:47:28.773Z,90.85
2017-12-05T04:49:54.531Z,90.95
2017-12-05T04:52:20.343Z,90.82
2017-12-05T04:54:46.123Z,90.63
2017-12-05T04:57:11.903Z,90.57
2017-12-05T04:59:37.688Z,90.57
2017-12-05T05:02:03.471Z,90.54
2017-12-05T05:04:29.259Z,90.65
2017-12-05T05:06:55.034Z,90.40
2017-12-05T05:09:20.811Z,89.97
2017-12-05T05:11:46.571Z,90.15
2017-12-05T05:14:12.344Z,90.00
2017-12-05T05:16:38.112Z,90.05
2017-12-05T05:19:03.911Z,89.99
2017-12-05T05:21:29.679Z,89.69
2017-12-05T05:23:55.469Z,89.76
2017-12-05T05:26:21.232Z,89.69
2017-12-05T05:28:47.016Z,89.70
2017-12-05T05:31:12.779Z,89.56
2017-12-05T05:33:38.557Z,89.87
2017-12-05T05:36:04.323Z,89.54
2017-12-05T05:38:30.078Z,89.60
2017-12-05T05:40:55.867Z,89.39
2017-12-05T05:43:21.646Z,89.19
2017-12-05T05:45:47.424Z,89.34
2017-12-05T05:48:13.201Z,89.23
2017-12-05T05:50:38.964Z,89.08
2017-12-05T05:53:04.731Z,88.92
2017-12-05T05:55:30.502Z,88.88
2017-12-05T05:57:56.278Z,89.09
2017-12-05T06:00:22.053Z,89.07
2017-12-05T06:02:47.816Z,89.20
2017-12-05T06:05:13.578Z,89.00
2017-12-05T06:07:39.354Z,89.35
2017-12-05T06:10:05.119Z,89.21
2017-12-05T06:12:30.870Z,89.02
2017-12-05T06:14:56.640Z,88.93
2017-12-05T06:17:22.417Z,88.84
2017-12-05T06:19:48.184Z,88.96
2017-12-05T06:22:13.945Z,88.86
2017-12-05T06:24:39.739Z,88.99
2017-12-05T06:27:05.497Z,88.87
2017-12-05T06:29:31.251Z,88.56
2017-12-05T06:31:57.023Z,88.33
2017-12-05T06:34:22.793Z,88.63
2017-12-05T06:36:48.567Z,88.61
2017-12-05T06:39:14.315Z,88.42
2017-12-05T06:41:40.071Z,88.53
2017-12-05T06:44:05.828Z,88.72
2017-12-05T06:46:31.595Z,88.77
2017-12-05T06:48:57.360Z,88.58
2017-12-05T06:51:23.123Z,88.78
2017-12-05T06:53:48.887Z,88.87
2017-12-05T06:56:14.655Z,89.13
2017-12-05T06:58:40.416Z,89.08
2017-12-05T07:01:06.211Z,89.21
2017-12-05T07:03:31.980Z,89.02
2017-12-05T07:05:57.739Z,89.00
2017-12-05T07:08:23.506Z,89.21
2017-12-05T07:10:49.254Z,89.44
2017-12-05T07:13:15.014Z,89.48
2017-12-05T07:15:40.788Z,89.53
2017-12-05T07:18:06.551Z,89.53
2017-12-05T07:20:32.302Z,89.49
2017-12-05T07:22:58.084Z,89.62
2017-12-05T07:25:23.848Z,89.88
2017-12-05T07:27:55.692Z,89.63
2017-12-05T07:30:21.455Z,89.32
2017-12-05T07:32:47.231Z,89.43
2017-12-05T07:35:12.986Z,89.31
2017-12-05T07:37:38.776Z,89.83
2017-12-05T07:40:04.536Z,89.51
2017-12-05T07:42:30.311Z,89.29
2017-12-05T07:44:56.077Z,89.64
2017-12-05T07:47:21.866Z,89.98
2017-12-05T07:49:47.642Z,89.63
2017-12-05T07:52:13.436Z,89.76
2017-12-05T07:54:39.199Z,89.85
2017-12-05T07:57:04.971Z,89.90
2017-12-05T07:59:30.748Z,89.86
2017-12-05T08:01:56.557Z,90.50
2017-12-05T08:04:22.344Z,90.92
2017-12-05T08:06:48.119Z,90.91
2017-12-05T08:09:13.906Z,90.99
2017-12-05T08:11:39.689Z,90.68
2017-12-05T08:14:05.463Z,90.89
2017-12-05T08:16:31.242Z,91.00
2017-12-05T08:18:57.024Z,91.12
2017-12-05T08:21:22.816Z,90.89
2017-12-05T08:23:48.609Z,90.72
2017-12-05T08:26:14.368Z,90.57
2017-12-05T08:28:40.155Z,90.39
2017-12-05T08:31:06.123Z,90.46
2017-12-05T08:33:32.014Z,90.23
2017-12-05T08:35:57.797Z,90.15
2017-12-05T08:38:23.687Z,90.22
2017-12-05T08:40:49.468Z,90.22
2017-12-05T08:43:15.247Z,90.30
2017-12-05T08:45:41.088Z,90.23
2017-12-05T08:48:06.872Z,90.36
2017-12-05T08:50:32.680Z,90.20
2017-12-05T08:52:58.448Z,89.96
2017-12-05T08:55:24.215Z,89.63
2017-12-05T08:57:49.972Z,89.94
2017-12-05T09:00:15.763Z,89.83
2017-12-05T09:02:41.526Z,89.85
2017-12-05T09:05:07.325Z,89.52
2017-12-05T09:07:33.087Z,89.72
2017-12-05T09:09:58.863Z,90.61
2017-12-05T09:12:24.641Z,90.61
2017-12-05T09:14:50.422Z,90.98
2017-12-05T09:17:16.178Z,91.27
2017-12-05T09:19:41.955Z,91.47
2017-12-05T09:22:07.723Z,91.78
2017-12-05T09:24:33.488Z,92.00
2017-12-05T09:26:59.297Z,91.98
2017-12-05T09:29:25.079Z,91.62
2017-12-05T09:31:50.852Z,91.55
2017-12-05T09:34:16.616Z,91.56
2017-12-05T09:36:42.387Z,90.95
2017-12-05T09:39:08.143Z,91.12
2017-12-05T09:41:33.927Z,90.73
2017-12-05T09:43:59.696Z,90.27
2017-12-05T09:46:25.492Z,90.44
2017-12-05T09:48:51.251Z,89.99
2017-12-05T09:51:17.032Z,90.08
2017-12-05T09:53:42.808Z,90.00
2017-12-05T09:56:08.600Z,89.95
2017-12-05T09:58:34.376Z,89.58
2017-12-05T10:01:00.163Z,89.70
2017-12-05T10:03:25.937Z,89.61
2017-12-05T10:05:51.759Z,89.52
2017-12-05T10:08:17.527Z,89.54
2017-12-05T10:10:43.295Z,89.16
2017-12-05T10:13:09.075Z,89.40
2017-12-05T10:15:34.841Z,88.88
2017-12-05T10:18:00.627Z,88.58
2017-12-05T10:20:26.400Z,88.42
2017-12-05T10:22:52.191Z,88.05
2017-12-05T10:25:17.965Z,87.86
2017-12-05T10:27:43.732Z,87.85
2017-12-05T10:30:09.491Z,88.46
2017-12-05T10:32:35.276Z,88.24
2017-12-05T10:35:01.064Z,88.22
2017-12-05T10:37:26.841Z,88.56
2017-12-05T10:39:52.622Z,87.96
2017-12-05T10:42:18.379Z,88.36
2017-12-05T10:44:44.169Z,88.22
2017-12-05T10:47:09.950Z,87.52
2017-12-05T10:49:35.715Z,87.32
2017-12-05T10:52:01.489Z,87.56
2017-12-05T10:54:27.270Z,87.51
2017-12-05T10:56:53.080Z,87.11
2017-12-05T10:59:18.851Z,87.22
2017-12-05T11:01:44.624Z,86.82
2017-12-05T11:04:10.390Z,86.53
2017-12-05T11:06:36.145Z,86.33
2017-12-05T11:09:01.961Z,86.69
2017-12-05T11:11:27.744Z,86.10
2017-12-05T11:13:53.540Z,86.42
2017-12-05T11:16:19.315Z,86.53
2017-12-05T11:18:45.112Z,86.70
2017-12-05T11:21:10.896Z,86.17
2017-12-05T11:23:36.664Z,86.15
2017-12-05T11:26:02.455Z,85.92
2017-12-05T11:28:28.235Z,86.09
2017-12-05T11:30:54.033Z,86.24
2017-12-05T11:33:19.792Z,85.51
2017-12-05T11:35:45.572Z,85.38
2017-12-05T11:38:11.331Z,84.87
2017-12-05T11:40:37.116Z,85.01
2017-12-05T11:43:02.907Z,85.37
2017-12-05T11:45:28.692Z,84.81
2017-12-05T11:47:54.454Z,84.86
2017-12-05T11:50:20.215Z,85.00
2017-12-05T11:52:45.995Z,85.05
2017-12-05T11:55:11.760Z,85.21
2017-12-05T11:57:37.535Z,84.53
2017-12-05T12:00:03.359Z,84.89
2017-12-05T12:02:29.081Z,84.82
2017-12-05T12:04:54.841Z,84.45
2017-12-05T12:07:20.621Z,84.42
2017-12-05T12:09:46.377Z,83.93
2017-12-05T12:12:12.152Z,84.13
2017-12-05T12:14:37.916Z,84.29
2017-12-05T12:17:03.667Z,84.44
2017-12-05T12:19:29.546Z,84.36
2017-12-05T12:21:55.304Z,84.27
2017-12-05T12:24:21.071Z,83.92
2017-12-05T12:26:46.851Z,84.28
2017-12-05T12:29:12.610Z,84.70
2017-12-05T12:31:38.378Z,85.95
2017-12-05T12:34:04.139Z,86.09
2017-12-05T12:36:29.920Z,86.09
2017-12-05T12:38:55.678Z,85.17
2017-12-05T12:41:21.471Z,85.45
2017-12-05T12:43:47.228Z,84.96
2017-12-05T12:46:13.007Z,84.97
2017-12-05T12:48:38.763Z,85.30
2017-12-05T12:51:04.536Z,84.67
2017-12-05T12:53:30.296Z,84.38
2017-12-05T12:55:56.059Z,84.48
2017-12-05T12:58:21.849Z,84.57
2017-12-05T13:00:47.622Z,85.28
2017-12-05T13:03:13.390Z,85.27
2017-12-05T13:05:39.130Z,85.00
2017-12-05T13:08:04.904Z,84.59
2017-12-05T13:10:30.655Z,84.62
2017-12-05T13:12:56.429Z,84.90
2017-12-05T13:15:22.194Z,84.09
2017-12-05T13:17:47.964Z,84.25
2017-12-05T13:20:13.730Z,84.53
2017-12-05T13:22:39.539Z,83.87
2017-12-05T13:25:05.313Z,83.79
2017-12-05T13:27:31.087Z,84.24
2017-12-05T13:29:56.863Z,83.74
2017-12-05T13:32:22.628Z,83.33
2017-12-05T13:34:48.397Z,84.15
2017-12-05T13:37:14.201Z,83.43
2017-12-05T13:39:39.969Z,83.59
2017-12-05T13:42:05.741Z,83.26
2017-12-05T13:44:31.516Z,83.16
2017-12-05T13:46:57.274Z,83.03
2017-12-05T13:49:23.061Z,83.07
2017-12-05T13:51:48.837Z,82.51
2017-12-05T13:54:14.611Z,83.11
2017-12-05T13:56:40.395Z,83.15
2017-12-05T13:59:06.160Z,83.20
2017-12-05T14:01:31.911Z,83.65
2017-12-05T14:03:57.702Z,83.39
2017-12-05T14:06:23.467Z,83.35
2017-12-05T14:08:49.261Z,83.83
2017-12-05T14:11:15.049Z,83.44
2017-12-05T14:13:40.820Z,83.76
2017-12-05T14:16:06.644Z,84.02
2017-12-05T14:18:32.423Z,84.21
2017-12-05T14:20:58.208Z,84.13
2017-12-05T14:23:23.975Z,84.02
2017-12-05T14:25:49.739Z,84.15
2017-12-05T14:28:15.483Z,83.64
2017-12-05T14:30:41.269Z,83.89
2017-12-05T14:33:07.019Z,83.71
2017-12-05T14:35:32.799Z,83.47
2017-12-05T14:37:58.540Z,83.67
2017-12-05T14:40:24.312Z,83.72
2017-12-05T14:42:50.071Z,83.58
2017-12-05T14:45:15.844Z,83.51
2017-12-05T14:47:41.618Z,83.29
2017-12-05T14:50:07.382Z,83.76
2017-12-05T14:52:33.164Z,83.27
2017-12-05T14:54:58.921Z,83.08
2017-12-05T14:57:24.704Z,83.15
2017-12-05T14:59:50.468Z,83.11
2017-12-05T15:02:16.245Z,83.22
2017-12-05T15:04:42.004Z,83.09
2017-12-05T15:07:07.787Z,82.72
2017-12-05T15:09:33.547Z,82.81
2017-12-05T15:11:59.323Z,82.78
2017-12-05T15:14:25.092Z,83.10
2017-12-05T15:16:50.865Z,83.02
2017-12-05T15:19:16.628Z,83.04
2017-12-05T15:21:42.392Z,83.21
2017-12-05T15:24:08.169Z,83.16
2017-12-05T15:26:33.960Z,83.83
2017-12-05T15:28:59.709Z,83.28
2017-12-05T15:31:25.492Z,83.25
2017-12-05T15:33:51.288Z,83.43
2017-12-05T15:36:17.052Z,83.58
2017-12-05T15:38:42.842Z,83.50
2017-12-05T15:41:08.612Z,83.58
2017-12-05T15:43:34.388Z,83.40
2017-12-05T15:46:00.148Z,83.48
2017-12-05T15:48:25.939Z,83.65
2017-12-05T15:50:51.715Z,83.55
2017-12-05T15:53:17.487Z,83.24
2017-12-05T15:55:43.251Z,83.53
2017-12-05T15:58:09.023Z,83.63
2017-12-05T16:00:34.798Z,84.08
2017-12-05T16:03:00.571Z,83.88
2017-12-05T16:05:26.320Z,84.26
2017-12-05T16:07:52.096Z,85.02
2017-12-05T16:10:17.856Z,85.41
2017-12-05T16:12:43.639Z,85.31
2017-12-05T16:15:09.401Z,85.41
2017-12-05T16:17:35.211Z,83.86
2017-12-05T16:20:00.975Z,83.96
2017-12-05T16:22:26.751Z,84.21
2017-12-05T16:24:52.557Z,84.37
2017-12-05T16:27:18.376Z,85.07
2017-12-05T16:29:44.132Z,85.08
2017-12-05T16:32:09.903Z,84.81
2017-12-05T16:34:35.679Z,86.33
2017-12-05T16:37:01.443Z,86.76
2017-12-05T16:39:27.236Z,87.08
2017-12-05T16:41:53.004Z,87.15
2017-12-05T16:44:18.787Z,87.37
2017-12-05T16:46:44.550Z,87.52
2017-12-05T16:49:10.318Z,87.61
2017-12-05T16:51:36.067Z,87.63
2017-12-05T16:54:01.854Z,87.64
2017-12-05T16:56:27.620Z,87.21
2017-12-05T16:58:53.412Z,86.96
2017-12-05T17:01:19.179Z,86.19
2017-12-05T17:03:44.971Z,85.97
2017-12-05T17:06:10.738Z,85.83
2017-12-05T17:08:36.508Z,85.92
2017-12-05T17:11:02.284Z,85.63
2017-12-05T17:13:28.047Z,85.35
2017-12-05T17:15:53.809Z,85.37
2017-12-05T17:18:19.583Z,85.00
2017-12-05T17:20:45.359Z,85.36
2017-12-05T17:23:11.120Z,85.42
2017-12-05T17:25:36.921Z,85.50
2017-12-05T17:28:02.692Z,85.59
2017-12-05T17:30:28.476Z,85.33
2017-12-05T17:32:54.255Z,85.17
2017-12-05T17:35:20.041Z,85.21
2017-12-05T17:37:45.803Z,85.46
2017-12-05T17:40:11.571Z,85.99
2017-12-05T17:42:37.341Z,86.47
2017-12-05T17:45:03.119Z,85.89
2017-12-05T18:36:06.244Z,78.41
2017-12-05T18:38:32.016Z,82.46
2017-12-05T18:40:57.780Z,84.01
2017-12-05T18:43:23.564Z,84.75
2017-12-05T18:45:49.354Z,84.69
2017-12-05T18:48:15.129Z,84.99
2017-12-05T18:50:40.884Z,84.87
2017-12-05T18:53:06.673Z,84.66
2017-12-05T18:55:32.431Z,84.99
2017-12-05T18:57:58.240Z,85.53
2017-12-05T19:00:24.024Z,84.97
2017-12-05T19:02:49.800Z,84.75
2017-12-05T19:05:15.614Z,85.11
2017-12-05T19:07:41.393Z,85.08
2017-12-05T19:10:07.175Z,85.09
2017-12-05T19:12:32.973Z,85.29
2017-12-05T19:14:58.733Z,85.18
2017-12-05T19:17:24.507Z,85.10
2017-12-05T19:19:50.277Z,85.15
2017-12-05T19:22:16.064Z,84.68
2017-12-05T19:24:41.836Z,84.99
2017-12-05T19:27:07.622Z,84.67
2017-12-05T19:29:33.375Z,84.28
2017-12-05T19:31:59.139Z,84.44
2017-12-05T19:34:24.918Z,84.79
2017-12-05T19:36:50.675Z,85.08
2017-12-05T19:39:16.452Z,84.81
2017-12-05T19:41:42.232Z,85.21
2017-12-05T19:44:08.000Z,85.19
2017-12-05T19:46:33.766Z,85.28
2017-12-05T19:48:59.541Z,85.38
2017-12-05T19:51:25.305Z,85.41
2017-12-05T19:53:51.093Z,85.27
2017-12-05T19:56:16.877Z,84.97
2017-12-05T19:58:42.670Z,84.85
2017-12-05T20:01:08.436Z,84.24
2017-12-05T20:03:34.236Z,83.88
2017-12-05T20:06:00.005Z,83.90
2017-12-05T20:08:25.763Z,83.78
2017-12-05T20:10:51.535Z,83.37
2017-12-05T20:13:17.301Z,83.26
2017-12-05T20:15:43.080Z,82.94
2017-12-05T20:18:08.849Z,82.71
2017-12-05T20:20:34.611Z,82.61
2017-12-05T20:23:00.372Z,82.67
2017-12-05T20:25:26.161Z,81.73
2017-12-05T20:27:51.932Z,82.43
2017-12-05T20:30:17.700Z,82.14
2017-12-05T20:32:43.468Z,81.95
2017-12-05T20:35:09.604Z,81.40
2017-12-05T20:37:35.404Z,81.65
2017-12-05T20:40:01.195Z,82.57
2017-12-05T20:42:26.955Z,83.84
2017-12-05T20:44:52.895Z,84.00
2017-12-05T20:47:18.670Z,84.72
2017-12-05T20:49:44.436Z,85.74
2017-12-05T20:52:10.184Z,86.07
2017-12-05T20:54:35.941Z,86.46
2017-12-05T20:57:01.712Z,86.71
2017-12-05T20:59:27.476Z,86.77
2017-12-05T21:01:53.236Z,86.80
2017-12-05T21:04:18.991Z,86.67
2017-12-05T21:06:44.779Z,86.61
2017-12-05T21:09:10.531Z,86.58
2017-12-05T21:11:36.304Z,85.89
2017-12-05T21:14:02.074Z,85.29
2017-12-05T21:16:27.839Z,84.88
2017-12-05T21:18:53.601Z,85.09
2017-12-05T21:21:19.363Z,84.64
2017-12-05T21:23:45.111Z,85.00
2017-12-05T21:26:10.891Z,84.98
2017-12-05T21:28:36.631Z,84.79
2017-12-05T21:31:02.390Z,84.67
2017-12-05T21:33:28.159Z,84.65
2017-12-05T21:35:53.928Z,84.71
2017-12-05T21:38:19.684Z,84.97
2017-12-05T21:40:45.435Z,84.97
2017-12-05T21:43:11.201Z,84.93
2017-12-05T21:45:36.951Z,84.48
2017-12-05T21:48:02.727Z,84.54
2017-12-05T21:50:28.483Z,84.62
2017-12-05T21:52:54.255Z,85.00
2017-12-05T21:55:20.403Z,85.00
2017-12-05T21:57:46.715Z,85.38
2017-12-05T22:00:12.969Z,85.38
2017-12-05T22:02:38.978Z,84.96
2017-12-05T22:05:04.931Z,84.28
2017-12-05T22:07:31.050Z,83.79
2017-12-05T22:09:56.824Z,83.87
2017-12-05T22:12:22.786Z,83.82
2017-12-05T22:14:48.542Z,83.51
2017-12-05T22:17:14.318Z,83.02
2017-12-05T22:19:40.062Z,82.27
2017-12-05T22:22:05.824Z,82.34
2017-12-05T22:24:31.580Z,81.92
2017-12-05T22:26:57.353Z,82.27
2017-12-05T22:29:23.228Z,81.99
2017-12-05T22:31:48.993Z,82.56
2017-12-05T22:34:14.751Z,82.00
2017-12-05T22:36:40.508Z,81.67
2017-12-05T22:39:06.271Z,81.60
2017-12-05T22:41:32.111Z,81.64
2017-12-05T22:43:57.888Z,81.57
2017-12-05T22:46:23.648Z,81.46
2017-12-05T22:48:49.412Z,81.40
2017-12-05T22:51:15.164Z,81.54
2017-12-05T22:53:40.961Z,81.66
2017-12-05T22:56:06.695Z,82.01
2017-12-05T22:58:32.557Z,81.91
2017-12-05T23:00:58.353Z,81.43
2017-12-05T23:03:24.140Z,81.09
2017-12-05T23:05:49.908Z,81.09
2017-12-05T23:08:15.826Z,81.06
2017-12-05T23:10:41.611Z,80.84
2017-12-05T23:13:07.367Z,80.73
2017-12-05T23:15:33.136Z,80.63
2017-12-05T23:17:58.959Z,80.40
2017-12-05T23:20:24.715Z,79.78
2017-12-05T23:22:50.470Z,79.95
2017-12-05T23:25:16.249Z,80.08
2017-12-05T23:27:42.008Z,79.99
2017-12-05T23:30:07.782Z,79.43
2017-12-05T23:32:33.534Z,78.91
2017-12-05T23:34:59.300Z,78.82
2017-12-05T23:37:25.048Z,78.20
2017-12-05T23:39:50.811Z,78.34
2017-12-05T23:42:16.563Z,78.48
2017-12-05T23:44:42.323Z,78.39
2017-12-05T23:47:08.084Z,77.70
2017-12-05T23:49:33.855Z,78.17
2017-12-05T23:51:59.616Z,77.44
2017-12-05T23:54:25.395Z,77.62
2017-12-05T23:56:51.144Z,77.58
2017-12-05T23:59:16.903Z,77.22
